sensor_id;sensor_type;location;lat;lon;timestamp;pressure;altitude;pressure_sealevel;temperature;humidity
35151;BME280;55720;51.972;4.624;2022-10-16T00:00:40;100610.78;;;15.47;100.00
35151;BME280;55720;51.972;4.624;2022-10-16T00:03:07;100602.31;;;15.36;100.00
35151;BME280;55720;51.972;4.624;2022-10-16T00:05:33;100607.66;;;15.25;100.00
35151;BME280;55720;51.972;4.624;2022-10-16T00:08:02;100605.06;;;15.36;100.00
35151;BME280;55720;51.972;4.624;2022-10-16T00:10:28;100608.19;;;15.35;100.00
35151;BME280;55720;51.972;4.624;2022-10-16T00:12:54;100619.22;;;15.54;100.00
35151;BME280;55720;51.972;4.624;2022-10-16T00:15:19;100621.34;;;15.41;100.00
35151;BME280;55720;51.972;4.624;2022-10-16T00:17:44;100616.53;;;15.57;100.00
35151;BME280;55720;51.972;4.624;2022-10-16T00:20:10;100622.84;;;15.58;100.00
35151;BME280;55720;51.972;4.624;2022-10-16T00:22:35;100635.69;;;15.47;100.00
35151;BME280;55720;51.972;4.624;2022-10-16T00:25:00;100633.06;;;15.54;100.00
35151;BME280;55720;51.972;4.624;2022-10-16T00:27:26;100638.81;;;15.68;100.00
35151;BME280;55720;51.972;4.624;2022-10-16T00:29:52;100639.81;;;15.34;100.00
35151;BME280;55720;51.972;4.624;2022-10-16T00:32:20;100627.19;;;15.55;100.00
35151;BME280;55720;51.972;4.624;2022-10-16T00:34:46;100608.66;;;15.14;100.00
35151;BME280;55720;51.972;4.624;2022-10-16T00:37:12;100599.88;;;15.08;100.00
35151;BME280;55720;51.972;4.624;2022-10-16T00:39:37;100599.91;;;14.89;100.00
35151;BME280;55720;51.972;4.624;2022-10-16T00:42:03;100591.28;;;14.94;100.00
35151;BME280;55720;51.972;4.624;2022-10-16T00:47:18;100568.69;;;14.89;100.00
35151;BME280;55720;51.972;4.624;2022-10-16T00:49:45;100571.03;;;14.87;100.00
35151;BME280;55720;51.972;4.624;2022-10-16T00:52:11;100574.41;;;14.76;100.00
35151;BME280;55720;51.972;4.624;2022-10-16T00:54:38;100566.59;;;15.05;100.00
35151;BME280;55720;51.972;4.624;2022-10-16T00:57:05;100559.47;;;14.81;100.00
35151;BME280;55720;51.972;4.624;2022-10-16T00:59:41;100543.81;;;14.89;100.00
35151;BME280;55720;51.972;4.624;2022-10-16T01:02:12;100538.41;;;14.96;100.00
35151;BME280;55720;51.972;4.624;2022-10-16T01:04:42;100521.88;;;14.99;100.00
35151;BME280;55720;51.972;4.624;2022-10-16T01:07:57;100509.22;;;14.98;100.00
35151;BME280;55720;51.972;4.624;2022-10-16T01:10:33;100505.34;;;14.80;100.00
35151;BME280;55720;51.972;4.624;2022-10-16T01:13:06;100519.97;;;15.03;100.00
35151;BME280;55720;51.972;4.624;2022-10-16T01:18:30;100519.28;;;15.10;100.00
35151;BME280;55720;51.972;4.624;2022-10-16T01:21:06;100517.56;;;15.02;100.00
35151;BME280;55720;51.972;4.624;2022-10-16T01:32:01;100523.00;;;14.95;100.00
35151;BME280;55720;51.972;4.624;2022-10-16T01:37:28;100530.06;;;14.92;100.00
35151;BME280;55720;51.972;4.624;2022-10-16T01:39:58;100519.34;;;14.91;100.00
35151;BME280;55720;51.972;4.624;2022-10-16T01:42:30;100528.88;;;14.70;100.00
35151;BME280;55720;51.972;4.624;2022-10-16T01:45:00;100521.88;;;14.54;100.00
35151;BME280;55720;51.972;4.624;2022-10-16T01:47:27;100522.50;;;14.66;100.00
35151;BME280;55720;51.972;4.624;2022-10-16T01:49:55;100520.41;;;14.60;100.00
35151;BME280;55720;51.972;4.624;2022-10-16T01:52:25;100523.41;;;14.51;100.00
35151;BME280;55720;51.972;4.624;2022-10-16T01:54:54;100524.78;;;14.61;100.00
35151;BME280;55720;51.972;4.624;2022-10-16T01:57:21;100524.31;;;14.59;100.00
35151;BME280;55720;51.972;4.624;2022-10-16T01:59:53;100526.81;;;14.45;100.00
35151;BME280;55720;51.972;4.624;2022-10-16T02:02:22;100526.47;;;14.46;100.00
35151;BME280;55720;51.972;4.624;2022-10-16T02:04:57;100535.69;;;14.54;100.00
35151;BME280;55720;51.972;4.624;2022-10-16T02:07:23;100527.69;;;14.49;100.00
35151;BME280;55720;51.972;4.624;2022-10-16T02:09:48;100528.69;;;14.60;100.00
35151;BME280;55720;51.972;4.624;2022-10-16T02:12:35;100527.78;;;14.75;100.00
35151;BME280;55720;51.972;4.624;2022-10-16T02:15:05;100530.31;;;14.61;100.00
35151;BME280;55720;51.972;4.624;2022-10-16T02:17:30;100529.56;;;14.64;100.00
35151;BME280;55720;51.972;4.624;2022-10-16T02:19:56;100530.50;;;14.71;100.00
35151;BME280;55720;51.972;4.624;2022-10-16T02:22:44;100541.63;;;14.75;100.00
35151;BME280;55720;51.972;4.624;2022-10-16T02:25:23;100539.31;;;14.81;100.00
35151;BME280;55720;51.972;4.624;2022-10-16T02:28:21;100537.63;;;14.95;100.00
35151;BME280;55720;51.972;4.624;2022-10-16T02:30:58;100537.56;;;14.92;100.00
35151;BME280;55720;51.972;4.624;2022-10-16T02:33:25;100537.06;;;14.86;100.00
35151;BME280;55720;51.972;4.624;2022-10-16T02:35:53;100553.47;;;14.75;100.00
35151;BME280;55720;51.972;4.624;2022-10-16T02:38:20;100550.44;;;14.84;100.00
35151;BME280;55720;51.972;4.624;2022-10-16T02:40:46;100544.25;;;14.91;100.00
35151;BME280;55720;51.972;4.624;2022-10-16T02:43:12;100552.47;;;14.87;100.00
35151;BME280;55720;51.972;4.624;2022-10-16T02:45:38;100544.53;;;14.63;100.00
35151;BME280;55720;51.972;4.624;2022-10-16T02:48:04;100555.38;;;14.71;100.00
35151;BME280;55720;51.972;4.624;2022-10-16T02:50:29;100554.25;;;14.76;100.00
35151;BME280;55720;51.972;4.624;2022-10-16T02:52:54;100540.63;;;14.64;100.00
35151;BME280;55720;51.972;4.624;2022-10-16T02:55:20;100529.13;;;14.62;100.00
35151;BME280;55720;51.972;4.624;2022-10-16T02:57:45;100533.38;;;14.78;100.00
35151;BME280;55720;51.972;4.624;2022-10-16T03:00:13;100537.72;;;14.57;100.00
35151;BME280;55720;51.972;4.624;2022-10-16T03:02:39;100546.16;;;14.64;100.00
35151;BME280;55720;51.972;4.624;2022-10-16T03:05:05;100543.00;;;14.65;100.00
35151;BME280;55720;51.972;4.624;2022-10-16T03:07:30;100549.25;;;14.62;100.00
35151;BME280;55720;51.972;4.624;2022-10-16T03:09:56;100548.31;;;14.55;100.00
35151;BME280;55720;51.972;4.624;2022-10-16T03:12:21;100558.72;;;14.61;100.00
35151;BME280;55720;51.972;4.624;2022-10-16T03:14:47;100554.44;;;14.64;100.00
35151;BME280;55720;51.972;4.624;2022-10-16T03:17:13;100551.81;;;14.71;100.00
35151;BME280;55720;51.972;4.624;2022-10-16T03:19:39;100566.91;;;14.77;100.00
35151;BME280;55720;51.972;4.624;2022-10-16T03:22:04;100565.88;;;14.85;100.00
35151;BME280;55720;51.972;4.624;2022-10-16T03:24:30;100562.81;;;14.90;100.00
35151;BME280;55720;51.972;4.624;2022-10-16T03:26:55;100569.50;;;14.89;100.00
35151;BME280;55720;51.972;4.624;2022-10-16T03:29:20;100577.41;;;14.91;100.00
35151;BME280;55720;51.972;4.624;2022-10-16T03:31:46;100586.34;;;15.03;100.00
35151;BME280;55720;51.972;4.624;2022-10-16T03:34:13;100584.25;;;14.97;100.00
35151;BME280;55720;51.972;4.624;2022-10-16T03:36:39;100588.06;;;14.89;100.00
35151;BME280;55720;51.972;4.624;2022-10-16T03:39:04;100582.19;;;14.71;100.00
35151;BME280;55720;51.972;4.624;2022-10-16T03:41:29;100591.16;;;14.64;100.00
35151;BME280;55720;51.972;4.624;2022-10-16T03:43:55;100585.69;;;14.68;100.00
35151;BME280;55720;51.972;4.624;2022-10-16T03:46:20;100587.94;;;14.62;100.00
35151;BME280;55720;51.972;4.624;2022-10-16T03:48:45;100596.63;;;14.61;100.00
35151;BME280;55720;51.972;4.624;2022-10-16T03:51:11;100599.31;;;14.38;100.00
35151;BME280;55720;51.972;4.624;2022-10-16T03:53:36;100606.63;;;14.30;100.00
35151;BME280;55720;51.972;4.624;2022-10-16T03:56:01;100611.50;;;14.37;100.00
35151;BME280;55720;51.972;4.624;2022-10-16T03:58:27;100601.13;;;14.50;100.00
35151;BME280;55720;51.972;4.624;2022-10-16T04:00:52;100598.09;;;14.36;100.00
35151;BME280;55720;51.972;4.624;2022-10-16T04:03:17;100608.09;;;14.44;100.00
35151;BME280;55720;51.972;4.624;2022-10-16T04:05:44;100601.28;;;14.38;100.00
35151;BME280;55720;51.972;4.624;2022-10-16T04:08:09;100609.91;;;14.36;100.00
35151;BME280;55720;51.972;4.624;2022-10-16T04:10:34;100610.75;;;14.21;100.00
35151;BME280;55720;51.972;4.624;2022-10-16T04:13:00;100616.78;;;14.26;100.00
35151;BME280;55720;51.972;4.624;2022-10-16T04:15:25;100613.88;;;14.19;100.00
35151;BME280;55720;51.972;4.624;2022-10-16T04:17:51;100612.88;;;14.27;100.00
35151;BME280;55720;51.972;4.624;2022-10-16T04:20:17;100621.00;;;14.20;100.00
35151;BME280;55720;51.972;4.624;2022-10-16T04:22:42;100623.69;;;14.17;100.00
35151;BME280;55720;51.972;4.624;2022-10-16T04:25:08;100630.09;;;14.21;100.00
35151;BME280;55720;51.972;4.624;2022-10-16T04:27:34;100616.38;;;14.24;100.00
35151;BME280;55720;51.972;4.624;2022-10-16T04:29:59;100623.03;;;14.39;100.00
35151;BME280;55720;51.972;4.624;2022-10-16T04:32:25;100630.75;;;14.34;100.00
35151;BME280;55720;51.972;4.624;2022-10-16T04:34:51;100628.47;;;14.36;100.00
35151;BME280;55720;51.972;4.624;2022-10-16T04:37:16;100634.28;;;14.50;100.00
35151;BME280;55720;51.972;4.624;2022-10-16T04:39:41;100630.56;;;14.42;100.00
35151;BME280;55720;51.972;4.624;2022-10-16T04:42:07;100637.63;;;14.40;100.00
35151;BME280;55720;51.972;4.624;2022-10-16T04:44:32;100629.25;;;14.55;100.00
35151;BME280;55720;51.972;4.624;2022-10-16T04:46:57;100642.50;;;14.46;100.00
35151;BME280;55720;51.972;4.624;2022-10-16T04:49:23;100652.28;;;14.44;100.00
35151;BME280;55720;51.972;4.624;2022-10-16T04:51:48;100647.94;;;14.62;100.00
35151;BME280;55720;51.972;4.624;2022-10-16T04:54:13;100643.06;;;14.74;100.00
35151;BME280;55720;51.972;4.624;2022-10-16T04:56:39;100654.06;;;14.71;100.00
35151;BME280;55720;51.972;4.624;2022-10-16T04:59:15;100661.88;;;14.69;100.00
35151;BME280;55720;51.972;4.624;2022-10-16T05:01:40;100658.97;;;14.62;100.00
35151;BME280;55720;51.972;4.624;2022-10-16T05:04:06;100663.81;;;14.65;100.00
35151;BME280;55720;51.972;4.624;2022-10-16T05:06:31;100669.41;;;14.68;100.00
35151;BME280;55720;51.972;4.624;2022-10-16T05:08:56;100662.28;;;14.67;100.00
35151;BME280;55720;51.972;4.624;2022-10-16T05:11:22;100675.50;;;14.58;100.00
35151;BME280;55720;51.972;4.624;2022-10-16T05:13:47;100684.22;;;14.60;100.00
35151;BME280;55720;51.972;4.624;2022-10-16T05:16:12;100680.75;;;14.63;100.00
35151;BME280;55720;51.972;4.624;2022-10-16T05:18:38;100686.56;;;14.77;100.00
35151;BME280;55720;51.972;4.624;2022-10-16T05:21:06;100684.38;;;14.87;100.00
35151;BME280;55720;51.972;4.624;2022-10-16T05:23:31;100689.31;;;14.77;100.00
35151;BME280;55720;51.972;4.624;2022-10-16T05:25:58;100693.84;;;14.86;100.00
35151;BME280;55720;51.972;4.624;2022-10-16T05:28:28;100696.53;;;14.82;100.00
35151;BME280;55720;51.972;4.624;2022-10-16T05:30:54;100702.09;;;14.47;100.00
35151;BME280;55720;51.972;4.624;2022-10-16T05:33:20;100710.25;;;14.24;100.00
35151;BME280;55720;51.972;4.624;2022-10-16T05:35:46;100715.78;;;14.59;100.00
35151;BME280;55720;51.972;4.624;2022-10-16T05:38:11;100720.66;;;14.66;100.00
35151;BME280;55720;51.972;4.624;2022-10-16T05:40:37;100722.91;;;14.60;100.00
35151;BME280;55720;51.972;4.624;2022-10-16T05:43:02;100719.06;;;14.65;100.00
35151;BME280;55720;51.972;4.624;2022-10-16T05:45:28;100734.84;;;14.64;100.00
35151;BME280;55720;51.972;4.624;2022-10-16T05:47:53;100735.78;;;14.53;100.00
35151;BME280;55720;51.972;4.624;2022-10-16T05:50:18;100733.25;;;14.63;100.00
35151;BME280;55720;51.972;4.624;2022-10-16T05:52:44;100724.03;;;14.75;100.00
35151;BME280;55720;51.972;4.624;2022-10-16T05:55:09;100726.78;;;14.75;100.00
35151;BME280;55720;51.972;4.624;2022-10-16T05:57:34;100725.59;;;14.76;100.00
35151;BME280;55720;51.972;4.624;2022-10-16T06:00:00;100719.94;;;14.69;100.00
35151;BME280;55720;51.972;4.624;2022-10-16T06:02:25;100729.72;;;14.47;100.00
35151;BME280;55720;51.972;4.624;2022-10-16T06:04:54;100744.22;;;14.60;100.00
35151;BME280;55720;51.972;4.624;2022-10-16T06:07:19;100739.72;;;14.71;100.00
35151;BME280;55720;51.972;4.624;2022-10-16T06:09:48;100732.94;;;14.88;100.00
35151;BME280;55720;51.972;4.624;2022-10-16T06:12:13;100738.13;;;14.70;100.00
35151;BME280;55720;51.972;4.624;2022-10-16T06:14:39;100745.25;;;14.71;100.00
35151;BME280;55720;51.972;4.624;2022-10-16T06:17:04;100737.63;;;14.64;100.00
35151;BME280;55720;51.972;4.624;2022-10-16T06:19:29;100734.53;;;14.69;100.00
35151;BME280;55720;51.972;4.624;2022-10-16T06:21:56;100744.59;;;14.77;100.00
35151;BME280;55720;51.972;4.624;2022-10-16T06:24:23;100746.13;;;14.75;100.00
35151;BME280;55720;51.972;4.624;2022-10-16T06:26:48;100749.31;;;14.77;100.00
35151;BME280;55720;51.972;4.624;2022-10-16T06:29:13;100765.31;;;14.68;100.00
35151;BME280;55720;51.972;4.624;2022-10-16T06:31:39;100771.28;;;14.70;100.00
35151;BME280;55720;51.972;4.624;2022-10-16T06:34:04;100784.44;;;14.76;100.00
35151;BME280;55720;51.972;4.624;2022-10-16T06:36:34;100785.63;;;14.75;100.00
35151;BME280;55720;51.972;4.624;2022-10-16T06:38:59;100787.09;;;14.89;100.00
35151;BME280;55720;51.972;4.624;2022-10-16T06:41:25;100794.50;;;14.85;100.00
35151;BME280;55720;51.972;4.624;2022-10-16T06:43:50;100793.13;;;14.94;100.00
35151;BME280;55720;51.972;4.624;2022-10-16T06:46:17;100810.28;;;14.84;100.00
35151;BME280;55720;51.972;4.624;2022-10-16T06:48:43;100813.66;;;14.93;100.00
35151;BME280;55720;51.972;4.624;2022-10-16T06:51:11;100823.09;;;14.92;100.00
35151;BME280;55720;51.972;4.624;2022-10-16T06:53:39;100822.75;;;15.13;100.00
35151;BME280;55720;51.972;4.624;2022-10-16T06:56:10;100835.22;;;15.22;100.00
35151;BME280;55720;51.972;4.624;2022-10-16T06:58:35;100825.09;;;15.11;100.00
35151;BME280;55720;51.972;4.624;2022-10-16T07:01:01;100843.28;;;15.12;100.00
35151;BME280;55720;51.972;4.624;2022-10-16T07:03:26;100846.53;;;14.98;100.00
35151;BME280;55720;51.972;4.624;2022-10-16T07:05:52;100851.47;;;14.89;100.00
35151;BME280;55720;51.972;4.624;2022-10-16T07:08:17;100862.22;;;14.75;100.00
35151;BME280;55720;51.972;4.624;2022-10-16T07:10:42;100863.25;;;14.86;100.00
35151;BME280;55720;51.972;4.624;2022-10-16T07:13:08;100862.22;;;14.75;100.00
35151;BME280;55720;51.972;4.624;2022-10-16T07:15:34;100871.81;;;14.81;100.00
35151;BME280;55720;51.972;4.624;2022-10-16T07:17:59;100881.19;;;14.76;100.00
35151;BME280;55720;51.972;4.624;2022-10-16T07:20:25;100887.09;;;14.75;100.00
35151;BME280;55720;51.972;4.624;2022-10-16T07:22:51;100883.56;;;14.94;100.00
35151;BME280;55720;51.972;4.624;2022-10-16T07:25:16;100891.16;;;14.97;100.00
35151;BME280;55720;51.972;4.624;2022-10-16T07:27:42;100885.44;;;15.24;100.00
35151;BME280;55720;51.972;4.624;2022-10-16T07:30:08;100881.28;;;15.34;100.00
35151;BME280;55720;51.972;4.624;2022-10-16T07:32:33;100893.88;;;15.32;100.00
35151;BME280;55720;51.972;4.624;2022-10-16T07:34:58;100902.28;;;15.19;100.00
35151;BME280;55720;51.972;4.624;2022-10-16T07:37:24;100907.41;;;15.17;100.00
35151;BME280;55720;51.972;4.624;2022-10-16T07:39:49;100903.25;;;15.62;100.00
35151;BME280;55720;51.972;4.624;2022-10-16T07:42:14;100882.41;;;17.08;100.00
35151;BME280;55720;51.972;4.624;2022-10-16T07:44:40;100883.78;;;18.65;100.00
35151;BME280;55720;51.972;4.624;2022-10-16T07:47:06;100915.59;;;19.29;100.00
35151;BME280;55720;51.972;4.624;2022-10-16T07:49:31;100951.81;;;18.38;100.00
35151;BME280;55720;51.972;4.624;2022-10-16T07:51:57;100989.00;;;17.33;100.00
35151;BME280;55720;51.972;4.624;2022-10-16T07:54:22;100972.69;;;18.21;100.00
35151;BME280;55720;51.972;4.624;2022-10-16T07:56:47;100986.72;;;19.16;100.00
35151;BME280;55720;51.972;4.624;2022-10-16T07:59:13;101005.47;;;19.91;100.00
35151;BME280;55720;51.972;4.624;2022-10-16T08:01:38;101019.75;;;19.86;100.00
35151;BME280;55720;51.972;4.624;2022-10-16T08:04:04;101021.97;;;20.32;100.00
35151;BME280;55720;51.972;4.624;2022-10-16T08:06:36;101048.22;;;20.27;100.00
35151;BME280;55720;51.972;4.624;2022-10-16T08:09:02;101087.25;;;19.55;100.00
35151;BME280;55720;51.972;4.624;2022-10-16T08:11:27;101094.19;;;18.87;100.00
35151;BME280;55720;51.972;4.624;2022-10-16T08:13:52;101104.59;;;18.27;100.00
35151;BME280;55720;51.972;4.624;2022-10-16T08:16:18;101120.38;;;17.90;100.00
35151;BME280;55720;51.972;4.624;2022-10-16T08:18:43;101112.53;;;17.46;100.00
35151;BME280;55720;51.972;4.624;2022-10-16T08:21:16;101118.53;;;17.26;100.00
35151;BME280;55720;51.972;4.624;2022-10-16T08:23:42;101106.81;;;16.90;100.00
35151;BME280;55720;51.972;4.624;2022-10-16T08:26:09;101107.19;;;17.11;100.00
35151;BME280;55720;51.972;4.624;2022-10-16T08:28:35;101095.28;;;17.34;100.00
35151;BME280;55720;51.972;4.624;2022-10-16T08:31:08;101100.78;;;17.30;100.00
35151;BME280;55720;51.972;4.624;2022-10-16T08:33:34;101108.78;;;17.35;100.00
35151;BME280;55720;51.972;4.624;2022-10-16T08:36:00;101103.72;;;17.63;100.00
35151;BME280;55720;51.972;4.624;2022-10-16T08:38:26;101106.06;;;17.61;100.00
35151;BME280;55720;51.972;4.624;2022-10-16T08:40:57;101116.50;;;17.68;100.00
35151;BME280;55720;51.972;4.624;2022-10-16T08:48:45;101120.19;;;17.76;100.00
35151;BME280;55720;51.972;4.624;2022-10-16T08:51:18;101129.72;;;17.78;100.00
35151;BME280;55720;51.972;4.624;2022-10-16T08:53:55;101122.56;;;18.03;100.00
35151;BME280;55720;51.972;4.624;2022-10-16T08:56:22;101133.50;;;17.66;100.00
35151;BME280;55720;51.972;4.624;2022-10-16T08:58:47;101131.84;;;17.62;100.00
35151;BME280;55720;51.972;4.624;2022-10-16T09:01:16;101145.00;;;17.42;100.00
35151;BME280;55720;51.972;4.624;2022-10-16T09:04:12;101151.53;;;17.53;100.00
35151;BME280;55720;51.972;4.624;2022-10-16T09:06:53;101143.41;;;17.64;100.00
35151;BME280;55720;51.972;4.624;2022-10-16T09:12:17;101157.25;;;17.87;100.00
35151;BME280;55720;51.972;4.624;2022-10-16T09:14:54;101157.19;;;17.83;100.00
35151;BME280;55720;51.972;4.624;2022-10-16T09:20:22;101155.78;;;18.23;100.00
35151;BME280;55720;51.972;4.624;2022-10-16T09:23:15;101165.28;;;18.22;100.00
35151;BME280;55720;51.972;4.624;2022-10-16T09:25:43;101165.88;;;18.38;100.00
35151;BME280;55720;51.972;4.624;2022-10-16T09:28:09;101175.75;;;18.05;100.00
35151;BME280;55720;51.972;4.624;2022-10-16T09:30:35;101186.72;;;17.95;100.00
35151;BME280;55720;51.972;4.624;2022-10-16T09:33:02;101191.38;;;18.13;100.00
35151;BME280;55720;51.972;4.624;2022-10-16T09:38:03;101192.88;;;18.34;100.00
35151;BME280;55720;51.972;4.624;2022-10-16T09:40:31;101188.78;;;18.54;100.00
35151;BME280;55720;51.972;4.624;2022-10-16T09:43:02;101194.44;;;18.94;100.00
35151;BME280;55720;51.972;4.624;2022-10-16T09:45:28;101185.28;;;19.31;100.00
35151;BME280;55720;51.972;4.624;2022-10-16T09:47:54;101202.69;;;19.21;100.00
35151;BME280;55720;51.972;4.624;2022-10-16T09:50:27;101208.69;;;19.26;100.00
35151;BME280;55720;51.972;4.624;2022-10-16T09:53:13;101209.28;;;19.90;100.00
35151;BME280;55720;51.972;4.624;2022-10-16T09:56:09;101226.75;;;20.38;100.00
35151;BME280;55720;51.972;4.624;2022-10-16T09:58:35;101244.97;;;20.21;100.00
35151;BME280;55720;51.972;4.624;2022-10-16T10:01:00;101260.84;;;20.13;100.00
35151;BME280;55720;51.972;4.624;2022-10-16T10:03:37;101273.94;;;20.60;100.00
35151;BME280;55720;51.972;4.624;2022-10-16T10:06:26;101291.22;;;20.26;100.00
35151;BME280;55720;51.972;4.624;2022-10-16T10:11:40;101303.78;;;20.53;100.00
35151;BME280;55720;51.972;4.624;2022-10-16T10:16:46;101337.53;;;21.02;100.00
35151;BME280;55720;51.972;4.624;2022-10-16T10:19:17;101347.78;;;21.71;100.00
35151;BME280;55720;51.972;4.624;2022-10-16T10:21:43;101374.09;;;21.48;100.00
35151;BME280;55720;51.972;4.624;2022-10-16T10:24:14;101393.34;;;21.85;100.00
35151;BME280;55720;51.972;4.624;2022-10-16T10:26:47;101391.47;;;22.42;100.00
35151;BME280;55720;51.972;4.624;2022-10-16T10:37:04;101486.94;;;22.20;100.00
35151;BME280;55720;51.972;4.624;2022-10-16T10:42:39;101532.91;;;22.26;100.00
35151;BME280;55720;51.972;4.624;2022-10-16T10:45:28;101542.25;;;22.93;100.00
35151;BME280;55720;51.972;4.624;2022-10-16T10:50:50;101596.13;;;22.41;100.00
35151;BME280;55720;51.972;4.624;2022-10-16T10:58:59;101638.97;;;22.66;100.00
35151;BME280;55720;51.972;4.624;2022-10-16T11:07:05;101651.53;;;21.56;100.00
35151;BME280;55720;51.972;4.624;2022-10-16T11:09:41;101661.34;;;21.32;100.00
35151;BME280;55720;51.972;4.624;2022-10-16T11:12:17;101657.22;;;21.67;100.00
35151;BME280;55720;51.972;4.624;2022-10-16T11:15:03;101665.69;;;21.77;100.00
35151;BME280;55720;51.972;4.624;2022-10-16T11:17:42;101669.19;;;21.67;100.00
35151;BME280;55720;51.972;4.624;2022-10-16T11:22:48;101680.22;;;21.49;100.00
35151;BME280;55720;51.972;4.624;2022-10-16T11:25:22;101679.03;;;21.47;100.00
35151;BME280;55720;51.972;4.624;2022-10-16T11:27:56;101693.50;;;22.14;100.00
35151;BME280;55720;51.972;4.624;2022-10-16T11:30:27;101687.50;;;21.57;100.00
35151;BME280;55720;51.972;4.624;2022-10-16T11:36:06;101700.09;;;21.37;100.00
35151;BME280;55720;51.972;4.624;2022-10-16T11:41:27;101683.72;;;21.36;100.00
35151;BME280;55720;51.972;4.624;2022-10-16T11:49:47;101695.00;;;21.50;100.00
35151;BME280;55720;51.972;4.624;2022-10-16T11:55:24;101705.88;;;22.06;100.00
35151;BME280;55720;51.972;4.624;2022-10-16T11:58:22;101707.94;;;22.20;100.00
35151;BME280;55720;51.972;4.624;2022-10-16T12:01:01;101709.22;;;21.78;100.00
35151;BME280;55720;51.972;4.624;2022-10-16T12:08:45;101715.00;;;21.12;100.00
35151;BME280;55720;51.972;4.624;2022-10-16T12:11:36;101719.72;;;21.07;100.00
35151;BME280;55720;51.972;4.624;2022-10-16T12:17:00;101730.16;;;21.10;100.00
35151;BME280;55720;51.972;4.624;2022-10-16T12:19:27;101730.09;;;21.44;100.00
35151;BME280;55720;51.972;4.624;2022-10-16T12:21:59;101730.97;;;21.51;100.00
35151;BME280;55720;51.972;4.624;2022-10-16T12:26:53;101731.97;;;21.33;100.00
35151;BME280;55720;51.972;4.624;2022-10-16T12:29:31;101740.59;;;21.17;100.00
35151;BME280;55720;51.972;4.624;2022-10-16T12:31:57;101742.09;;;20.78;100.00
35151;BME280;55720;51.972;4.624;2022-10-16T12:36:48;101738.81;;;21.39;100.00
35151;BME280;55720;51.972;4.624;2022-10-16T12:39:22;101732.47;;;21.45;100.00
35151;BME280;55720;51.972;4.624;2022-10-16T12:42:00;101737.06;;;21.68;100.00
35151;BME280;55720;51.972;4.624;2022-10-16T12:44:32;101733.44;;;21.64;100.00
35151;BME280;55720;51.972;4.624;2022-10-16T12:47:00;101725.47;;;21.62;100.00
35151;BME280;55720;51.972;4.624;2022-10-16T12:51:54;101734.34;;;21.31;100.00
35151;BME280;55720;51.972;4.624;2022-10-16T12:54:37;101737.13;;;21.31;100.00
35151;BME280;55720;51.972;4.624;2022-10-16T13:00:04;101750.53;;;21.15;100.00
35151;BME280;55720;51.972;4.624;2022-10-16T13:02:50;101741.97;;;21.00;100.00
35151;BME280;55720;51.972;4.624;2022-10-16T13:27:14;101797.16;;;20.51;100.00
35151;BME280;55720;51.972;4.624;2022-10-16T13:29:43;101790.69;;;20.21;100.00
35151;BME280;55720;51.972;4.624;2022-10-16T13:32:10;101794.59;;;20.16;100.00
35151;BME280;55720;51.972;4.624;2022-10-16T13:34:47;101798.75;;;20.52;100.00
35151;BME280;55720;51.972;4.624;2022-10-16T13:37:18;101789.31;;;20.34;100.00
35151;BME280;55720;51.972;4.624;2022-10-16T13:39:44;101789.97;;;20.50;100.00
35151;BME280;55720;51.972;4.624;2022-10-16T13:42:22;101789.91;;;21.06;100.00
35151;BME280;55720;51.972;4.624;2022-10-16T13:44:50;101794.03;;;21.16;100.00
35151;BME280;55720;51.972;4.624;2022-10-16T13:50:05;101797.88;;;20.74;100.00
35151;BME280;55720;51.972;4.624;2022-10-16T13:52:32;101804.81;;;20.57;100.00
35151;BME280;55720;51.972;4.624;2022-10-16T13:54:57;101802.56;;;20.67;100.00
35151;BME280;55720;51.972;4.624;2022-10-16T13:57:24;101793.16;;;20.78;100.00
35151;BME280;55720;51.972;4.624;2022-10-16T13:59:50;101801.66;;;20.59;100.00
35151;BME280;55720;51.972;4.624;2022-10-16T14:02:32;101792.97;;;20.64;100.00
35151;BME280;55720;51.972;4.624;2022-10-16T14:05:03;101803.06;;;20.46;100.00
35151;BME280;55720;51.972;4.624;2022-10-16T14:07:32;101803.72;;;20.36;100.00
35151;BME280;55720;51.972;4.624;2022-10-16T14:10:05;101797.69;;;20.34;100.00
35151;BME280;55720;51.972;4.624;2022-10-16T14:12:31;101798.84;;;20.59;100.00
35151;BME280;55720;51.972;4.624;2022-10-16T14:14:58;101795.84;;;20.71;100.00
35151;BME280;55720;51.972;4.624;2022-10-16T14:17:31;101786.06;;;20.28;100.00
35151;BME280;55720;51.972;4.624;2022-10-16T14:20:00;101797.88;;;20.22;100.00
35151;BME280;55720;51.972;4.624;2022-10-16T14:22:39;101796.16;;;20.13;100.00
35151;BME280;55720;51.972;4.624;2022-10-16T14:25:27;101794.09;;;20.33;100.00
35151;BME280;55720;51.972;4.624;2022-10-16T14:28:13;101797.91;;;20.48;100.00
35151;BME280;55720;51.972;4.624;2022-10-16T14:30:59;101800.13;;;20.35;100.00
35151;BME280;55720;51.972;4.624;2022-10-16T14:33:32;101811.13;;;20.51;100.00
35151;BME280;55720;51.972;4.624;2022-10-16T14:38:35;101806.44;;;20.32;100.00
35151;BME280;55720;51.972;4.624;2022-10-16T14:41:03;101801.78;;;20.40;100.00
35151;BME280;55720;51.972;4.624;2022-10-16T14:45:57;101808.13;;;20.14;100.00
35151;BME280;55720;51.972;4.624;2022-10-16T14:48:24;101801.41;;;20.19;100.00
35151;BME280;55720;51.972;4.624;2022-10-16T14:50:49;101800.94;;;19.90;100.00
35151;BME280;55720;51.972;4.624;2022-10-16T14:53:15;101801.13;;;20.01;100.00
35151;BME280;55720;51.972;4.624;2022-10-16T14:55:41;101799.94;;;20.02;100.00